Janie — WDD4142 — position and weather

sailwx.info

Track history (hours):
 
Tides and Currents Weather Stations Pressure Air Temp Water Temp Dewpoint Dewpoint Depression Visibility Wind Speed Wind Dir Waves Ship Positions

Janie

Owner: Offshore Liftboats, LLC, Cut Off, LA. More information available from US FCC via Universal Licensing System and Coast Guard Vessel Documentation Center.

Last reported at 2016-Feb-07 07:33 UTC. Time now 2016-Feb-07 17:06 UTC.
Position N 29°33' W 093°29'.

Length 38 m; draft 2.7 m.

Type: Ship. MMSI: 367140730.

Date/timePositionNaut miles runAvg speedWind from/ knotsBaromVisibWave heightAir tempDewpointWater temp
2016-Feb-07 07:33N 29°33' W 093°29'1 0.0
2016-Feb-06 13:32N 29°33' W 093°28'0 0.0
2016-Feb-06 12:31N 29°33' W 093°28'0 0.0
2016-Feb-06 10:28N 29°33' W 093°28'0 0.0
2016-Feb-06 09:16N 29°33' W 093°28'0 0.0
2016-Feb-06 04:33N 29°33' W 093°28'0 0.0
2016-Feb-06 03:33N 29°33' W 093°28'0 0.0
2016-Feb-06 02:33N 29°33' W 093°28'0 0.0
2016-Feb-06 01:33N 29°33' W 093°28'0 0.0
2016-Feb-06 00:33N 29°33' W 093°28'0 0.0
2016-Feb-05 23:33N 29°33' W 093°28'0 0.0
2016-Feb-05 22:33N 29°33' W 093°28'0 0.0
2016-Feb-05 21:33N 29°33' W 093°28'0 0.0
2016-Feb-05 20:30N 29°33' W 093°28'0 0.0
2016-Feb-05 19:33N 29°33' W 093°28'0 0.0
2016-Feb-05 18:33N 29°33' W 093°28'0 0.0
2016-Feb-05 17:32N 29°33' W 093°28'0 0.0
2016-Feb-05 16:33N 29°33' W 093°28'0 0.0
2016-Feb-05 15:33N 29°33' W 093°28'0 0.0
2016-Feb-05 14:33N 29°33' W 093°28'0 0.0
2016-Feb-05 13:33N 29°33' W 093°28'0 0.0
2016-Feb-05 12:33N 29°33' W 093°28'0 0.0
2016-Feb-05 11:33N 29°33' W 093°28'0 0.0
2016-Feb-05 10:33N 29°33' W 093°28'0 0.0
2016-Feb-05 09:33N 29°33' W 093°28'0 0.0
2016-Feb-05 08:32N 29°33' W 093°28'0 0.0
2016-Feb-05 07:33N 29°33' W 093°28'0 0.0
2016-Feb-05 06:33N 29°33' W 093°28'0 0.0
2016-Feb-05 05:33N 29°33' W 093°28'0 0.0
2016-Feb-05 04:33N 29°33' W 093°28'0 0.0
2016-Feb-05 03:33N 29°33' W 093°28'0 0.0
2016-Feb-05 02:33N 29°33' W 093°28'0 0.0
2016-Feb-05 01:33N 29°33' W 093°28'0 0.0
2016-Feb-05 00:33N 29°33' W 093°28'0 0.0
2016-Feb-04 23:33N 29°33' W 093°28'0 0.0
2016-Feb-04 22:33N 29°33' W 093°28'0 0.0
2016-Feb-04 21:33N 29°33' W 093°28'0 0.0
2016-Feb-04 20:33N 29°33' W 093°28'0 0.0
2016-Feb-04 19:33N 29°33' W 093°28'0 0.0
2016-Feb-04 18:33N 29°33' W 093°28'0 0.0
2016-Feb-04 17:32N 29°33' W 093°28'0 0.0
2016-Feb-04 16:32N 29°33' W 093°28'0 0.0
2016-Feb-04 15:33N 29°33' W 093°28'0 0.0
2016-Feb-04 14:33N 29°33' W 093°28'0 0.0
2016-Feb-04 13:33N 29°33' W 093°28'0 0.0
2016-Feb-04 10:24N 29°33' W 093°28'0 0.0
2016-Feb-04 09:10N 29°33' W 093°28'0 0.0
2016-Feb-04 08:32N 29°33' W 093°28'0 0.0
2016-Feb-04 07:33N 29°33' W 093°28'0 0.0
2016-Feb-04 06:21N 29°33' W 093°28'0 0.0
2016-Feb-04 05:31N 29°33' W 093°28'0 0.0
2016-Feb-04 04:24N 29°33' W 093°28'0 0.0
2016-Feb-04 03:33N 29°33' W 093°28'7 0.5
2016-Feb-03 13:05N 29°39' W 093°24'4 7.6
2016-Feb-03 12:33N 29°43' W 093°21'7 6.5
2016-Feb-03 11:33N 29°49' W 093°20'0 0.0
2016-Feb-03 10:32N 29°49' W 093°20'0 0.0
2016-Feb-03 09:33N 29°49' W 093°20'0 0.0
2016-Feb-03 08:33N 29°49' W 093°20'0 0.0
2016-Feb-03 07:33N 29°49' W 093°20'0 0.0
2016-Feb-03 06:33N 29°49' W 093°20'0 0.1
2016-Feb-03 05:33N 29°49' W 093°20'0 0.0
2016-Feb-03 04:33N 29°49' W 093°20'0 0.2
2016-Feb-03 03:33N 29°49' W 093°21'1 1.3
2016-Feb-03 02:33N 29°48' W 093°21'1 1.4
2016-Feb-03 01:33N 29°49' W 093°21'0 0.0
2016-Feb-03 00:33N 29°49' W 093°21'0 0.0
2016-Feb-02 23:33N 29°49' W 093°21'0 0.0
2016-Feb-02 22:33N 29°49' W 093°21'0 0.0
2016-Feb-02 21:33N 29°49' W 093°21'0 0.0
2016-Feb-02 20:33N 29°49' W 093°21'0 0.0
2016-Feb-02 19:33N 29°49' W 093°20'1 1.5
2016-Feb-02 18:33N 29°48' W 093°21'0 0.0
2016-Feb-02 17:33N 29°48' W 093°21'0 0.0
2016-Feb-02 16:33N 29°48' W 093°21'0 0.0
2016-Feb-02 15:33N 29°48' W 093°21'0 0.0
2016-Feb-02 14:33N 29°48' W 093°21'0 0.0
2016-Feb-02 13:33N 29°48' W 093°21'0 0.0
2016-Feb-02 12:33N 29°48' W 093°21'0 0.0
2016-Feb-02 11:33N 29°48' W 093°21'0 0.0
2016-Feb-02 10:33N 29°48' W 093°21'0 0.0
2016-Feb-02 09:33N 29°48' W 093°21'0 0.0
2016-Feb-02 08:33N 29°48' W 093°21'0 0.0
2016-Feb-02 07:33N 29°48' W 093°21'0 0.0
2016-Feb-02 06:33N 29°48' W 093°21'0 0.0
2016-Feb-02 05:32N 29°48' W 093°21'0 0.0
2016-Feb-02 04:33N 29°48' W 093°21'0 0.0
2016-Feb-02 03:33N 29°48' W 093°21'0 0.0
2016-Feb-02 02:33N 29°48' W 093°21'0 0.0
2016-Feb-02 01:33N 29°48' W 093°21'0 0.0
2016-Feb-02 00:33N 29°48' W 093°21'0 0.0
2016-Feb-01 23:33N 29°48' W 093°21'0 0.0
2016-Feb-01 22:33N 29°48' W 093°21'0 0.0
2016-Feb-01 21:33N 29°48' W 093°21'0 0.0
2016-Feb-01 20:33N 29°48' W 093°21'0 0.0
2016-Feb-01 19:33N 29°48' W 093°21'0 0.0
2016-Feb-01 18:33N 29°48' W 093°21'0 0.0
2016-Feb-01 17:33N 29°48' W 093°21'0 0.0
2016-Feb-01 16:33N 29°48' W 093°21'0 0.0
2016-Feb-01 15:33N 29°48' W 093°21'0 0.0
2016-Feb-01 14:33N 29°48' W 093°21'0 0.0
2016-Feb-01 13:33N 29°48' W 093°21'0 0.0
2016-Feb-01 12:33N 29°48' W 093°21'0 0.0
2016-Feb-01 11:33N 29°48' W 093°21'0 0.0
2016-Feb-01 10:33N 29°48' W 093°21'0 0.0
2016-Feb-01 09:33N 29°48' W 093°21'0 0.0
2016-Feb-01 08:33N 29°48' W 093°21'0 0.0
2016-Feb-01 07:33N 29°48' W 093°21'0 0.0
2016-Feb-01 06:33N 29°48' W 093°21'0 0.0
2016-Feb-01 05:33N 29°48' W 093°21'0 0.0
2016-Feb-01 04:33N 29°48' W 093°21'0 0.0
2016-Feb-01 03:33N 29°48' W 093°21'0 0.0
2016-Feb-01 02:33N 29°48' W 093°21'0 0.0
2016-Feb-01 01:33N 29°48' W 093°21'0 0.0
2016-Feb-01 00:33N 29°48' W 093°21'0 0.0
2016-Jan-31 23:33N 29°48' W 093°21'0 0.0
2016-Jan-31 22:33N 29°48' W 093°21'0 0.0
2016-Jan-31 21:33N 29°48' W 093°21'0 0.0
2016-Jan-31 20:33N 29°48' W 093°21'0 0.0
2016-Jan-31 19:33N 29°48' W 093°21'0 0.0
2016-Jan-31 18:33N 29°48' W 093°21'0 0.0
2016-Jan-31 17:34N 29°48' W 093°21'0 0.0
2016-Jan-31 16:33N 29°48' W 093°21'0 0.0
2016-Jan-31 15:33N 29°48' W 093°21'0 0.0
2016-Jan-31 14:33N 29°48' W 093°21'0 0.0
2016-Jan-31 13:33N 29°48' W 093°21'0 0.0
2016-Jan-31 12:33N 29°48' W 093°21'0 0.0
2016-Jan-31 11:33N 29°48' W 093°21'0 0.0
2016-Jan-31 10:33N 29°48' W 093°21'0 0.0
2016-Jan-31 09:33N 29°48' W 093°21'0 0.0
2016-Jan-31 08:33N 29°48' W 093°21'0 0.0
2016-Jan-31 07:33N 29°48' W 093°21'0 0.0
2016-Jan-31 06:33N 29°48' W 093°21'0 0.0
2016-Jan-31 05:33N 29°48' W 093°21'0 0.0
2016-Jan-31 04:33N 29°48' W 093°21'0 0.0
2016-Jan-31 03:33N 29°48' W 093°21'0 0.0
2016-Jan-31 02:33N 29°48' W 093°21'0 0.0
2016-Jan-31 01:33N 29°48' W 093°21'0 0.0
2016-Jan-31 00:33N 29°48' W 093°21'0 0.0
2016-Jan-30 23:33N 29°48' W 093°21'0 0.0
2016-Jan-30 22:33N 29°48' W 093°21'0 0.0
2016-Jan-30 21:33N 29°48' W 093°21'0 0.0
2016-Jan-30 20:33N 29°48' W 093°21'0 0.0
2016-Jan-30 19:33N 29°48' W 093°21'0 0.0
2016-Jan-30 18:33N 29°48' W 093°21'0 0.0
2016-Jan-30 17:33N 29°48' W 093°21'0 0.0
2016-Jan-30 16:33N 29°48' W 093°21'0 0.0
2016-Jan-30 15:33N 29°48' W 093°21'0 0.0
2016-Jan-30 14:33N 29°48' W 093°21'0 0.0
2016-Jan-30 13:33N 29°48' W 093°21'0 0.0
2016-Jan-30 12:33N 29°48' W 093°21'0 0.0
2016-Jan-30 11:33N 29°48' W 093°21'0 0.0
2016-Jan-30 10:33N 29°48' W 093°21'0 0.0
2016-Jan-30 09:33N 29°48' W 093°21'0 0.0
2016-Jan-30 08:33N 29°48' W 093°21'0 0.0
2016-Jan-30 07:33N 29°48' W 093°21'0 0.0
2016-Jan-30 06:33N 29°48' W 093°21'0 0.0
2016-Jan-30 05:33N 29°48' W 093°21'0 0.0
2016-Jan-30 04:33N 29°48' W 093°21'0 0.0
2016-Jan-30 03:33N 29°48' W 093°21'0 0.0
2016-Jan-30 02:33N 29°48' W 093°21'0 0.0
2016-Jan-30 01:33N 29°48' W 093°21'3 2.7
2016-Jan-30 00:33N 29°45' W 093°21'5 5.4
2016-Jan-29 23:33N 29°42' W 093°15'6 6.1
2016-Jan-29 22:33N 29°40' W 093°09'6 6.1
2016-Jan-29 21:33N 29°38' W 093°03'6 6.0
2016-Jan-29 20:33N 29°36' W 092°56'6 5.5
2016-Jan-29 19:33N 29°35' W 092°50'7 5.2
2016-Jan-29 18:15N 29°33' W 092°42'13 5.0
2016-Jan-29 15:33N 29°28' W 092°28'9 2.6
2016-Jan-29 12:08N 29°33' W 092°18'0 0.0
2016-Jan-29 11:33N 29°33' W 092°18'0 0.0
2016-Jan-29 10:33N 29°33' W 092°18'0 0.0
2016-Jan-29 09:33N 29°33' W 092°18'0 0.0
2016-Jan-29 08:33N 29°33' W 092°18'0 0.0
2016-Jan-29 07:33N 29°33' W 092°18'0 0.0
2016-Jan-29 06:33N 29°33' W 092°18'0 0.0
2016-Jan-29 05:33N 29°33' W 092°18'0 0.0
2016-Jan-29 04:33N 29°33' W 092°18'  
Track history (hours):
 
Tides and Currents Weather Stations Pressure Air Temp Water Temp Dewpoint Dewpoint Depression Visibility Wind Speed Wind Dir Waves Ship Positions

Janie

Owner: Offshore Liftboats, LLC, Cut Off, LA. More information available from US FCC via Universal Licensing System and Coast Guard Vessel Documentation Center.

Last reported at 2016-Feb-07 07:33 UTC. Time now 2016-Feb-07 17:06 UTC.
Position N 29°33' W 093°29'.

Length 38 m; draft 2.7 m.

Type: Ship. MMSI: 367140730.

Date/timePositionNaut miles runAvg speedWind from/ knotsBaromVisibWave heightAir tempDewpointWater temp
2016-Feb-07 07:33N 29°33' W 093°29'1 0.0
2016-Feb-06 13:32N 29°33' W 093°28'0 0.0
2016-Feb-06 12:31N 29°33' W 093°28'0 0.0
2016-Feb-06 10:28N 29°33' W 093°28'0 0.0
2016-Feb-06 09:16N 29°33' W 093°28'0 0.0
2016-Feb-06 04:33N 29°33' W 093°28'0 0.0
2016-Feb-06 03:33N 29°33' W 093°28'0 0.0
2016-Feb-06 02:33N 29°33' W 093°28'0 0.0
2016-Feb-06 01:33N 29°33' W 093°28'0 0.0
2016-Feb-06 00:33N 29°33' W 093°28'0 0.0
2016-Feb-05 23:33N 29°33' W 093°28'0 0.0
2016-Feb-05 22:33N 29°33' W 093°28'0 0.0
2016-Feb-05 21:33N 29°33' W 093°28'0 0.0
2016-Feb-05 20:30N 29°33' W 093°28'0 0.0
2016-Feb-05 19:33N 29°33' W 093°28'0 0.0
2016-Feb-05 18:33N 29°33' W 093°28'0 0.0
2016-Feb-05 17:32N 29°33' W 093°28'0 0.0
2016-Feb-05 16:33N 29°33' W 093°28'0 0.0
2016-Feb-05 15:33N 29°33' W 093°28'0 0.0
2016-Feb-05 14:33N 29°33' W 093°28'0 0.0
2016-Feb-05 13:33N 29°33' W 093°28'0 0.0
2016-Feb-05 12:33N 29°33' W 093°28'0 0.0
2016-Feb-05 11:33N 29°33' W 093°28'0 0.0
2016-Feb-05 10:33N 29°33' W 093°28'0 0.0
2016-Feb-05 09:33N 29°33' W 093°28'0 0.0
2016-Feb-05 08:32N 29°33' W 093°28'0 0.0
2016-Feb-05 07:33N 29°33' W 093°28'0 0.0
2016-Feb-05 06:33N 29°33' W 093°28'0 0.0
2016-Feb-05 05:33N 29°33' W 093°28'0 0.0
2016-Feb-05 04:33N 29°33' W 093°28'0 0.0
2016-Feb-05 03:33N 29°33' W 093°28'0 0.0
2016-Feb-05 02:33N 29°33' W 093°28'0 0.0
2016-Feb-05 01:33N 29°33' W 093°28'0 0.0
2016-Feb-05 00:33N 29°33' W 093°28'0 0.0
2016-Feb-04 23:33N 29°33' W 093°28'0 0.0
2016-Feb-04 22:33N 29°33' W 093°28'0 0.0
2016-Feb-04 21:33N 29°33' W 093°28'0 0.0
2016-Feb-04 20:33N 29°33' W 093°28'0 0.0
2016-Feb-04 19:33N 29°33' W 093°28'0 0.0
2016-Feb-04 18:33N 29°33' W 093°28'0 0.0
2016-Feb-04 17:32N 29°33' W 093°28'0 0.0
2016-Feb-04 16:32N 29°33' W 093°28'0 0.0
2016-Feb-04 15:33N 29°33' W 093°28'0 0.0
2016-Feb-04 14:33N 29°33' W 093°28'0 0.0
2016-Feb-04 13:33N 29°33' W 093°28'0 0.0
2016-Feb-04 10:24N 29°33' W 093°28'0 0.0
2016-Feb-04 09:10N 29°33' W 093°28'0 0.0
2016-Feb-04 08:32N 29°33' W 093°28'0 0.0
2016-Feb-04 07:33N 29°33' W 093°28'0 0.0
2016-Feb-04 06:21N 29°33' W 093°28'0 0.0
2016-Feb-04 05:31N 29°33' W 093°28'0 0.0
2016-Feb-04 04:24N 29°33' W 093°28'0 0.0
2016-Feb-04 03:33N 29°33' W 093°28'7 0.5
2016-Feb-03 13:05N 29°39' W 093°24'4 7.6
2016-Feb-03 12:33N 29°43' W 093°21'7 6.5
2016-Feb-03 11:33N 29°49' W 093°20'0 0.0
2016-Feb-03 10:32N 29°49' W 093°20'0 0.0
2016-Feb-03 09:33N 29°49' W 093°20'0 0.0
2016-Feb-03 08:33N 29°49' W 093°20'0 0.0
2016-Feb-03 07:33N 29°49' W 093°20'0 0.0
2016-Feb-03 06:33N 29°49' W 093°20'0 0.1
2016-Feb-03 05:33N 29°49' W 093°20'0 0.0
2016-Feb-03 04:33N 29°49' W 093°20'0 0.2
2016-Feb-03 03:33N 29°49' W 093°21'1 1.3
2016-Feb-03 02:33N 29°48' W 093°21'1 1.4
2016-Feb-03 01:33N 29°49' W 093°21'0 0.0
2016-Feb-03 00:33N 29°49' W 093°21'0 0.0
2016-Feb-02 23:33N 29°49' W 093°21'0 0.0
2016-Feb-02 22:33N 29°49' W 093°21'0 0.0
2016-Feb-02 21:33N 29°49' W 093°21'0 0.0
2016-Feb-02 20:33N 29°49' W 093°21'0 0.0
2016-Feb-02 19:33N 29°49' W 093°20'1 1.5
2016-Feb-02 18:33N 29°48' W 093°21'0 0.0
2016-Feb-02 17:33N 29°48' W 093°21'0 0.0
2016-Feb-02 16:33N 29°48' W 093°21'0 0.0
2016-Feb-02 15:33N 29°48' W 093°21'0 0.0
2016-Feb-02 14:33N 29°48' W 093°21'0 0.0
2016-Feb-02 13:33N 29°48' W 093°21'0 0.0
2016-Feb-02 12:33N 29°48' W 093°21'0 0.0
2016-Feb-02 11:33N 29°48' W 093°21'0 0.0
2016-Feb-02 10:33N 29°48' W 093°21'0 0.0
2016-Feb-02 09:33N 29°48' W 093°21'0 0.0
2016-Feb-02 08:33N 29°48' W 093°21'0 0.0
2016-Feb-02 07:33N 29°48' W 093°21'0 0.0
2016-Feb-02 06:33N 29°48' W 093°21'0 0.0
2016-Feb-02 05:32N 29°48' W 093°21'0 0.0
2016-Feb-02 04:33N 29°48' W 093°21'0 0.0
2016-Feb-02 03:33N 29°48' W 093°21'0 0.0
2016-Feb-02 02:33N 29°48' W 093°21'0 0.0
2016-Feb-02 01:33N 29°48' W 093°21'0 0.0
2016-Feb-02 00:33N 29°48' W 093°21'0 0.0
2016-Feb-01 23:33N 29°48' W 093°21'0 0.0
2016-Feb-01 22:33N 29°48' W 093°21'0 0.0
2016-Feb-01 21:33N 29°48' W 093°21'0 0.0
2016-Feb-01 20:33N 29°48' W 093°21'0 0.0
2016-Feb-01 19:33N 29°48' W 093°21'0 0.0
2016-Feb-01 18:33N 29°48' W 093°21'0 0.0
2016-Feb-01 17:33N 29°48' W 093°21'0 0.0
2016-Feb-01 16:33N 29°48' W 093°21'0 0.0
2016-Feb-01 15:33N 29°48' W 093°21'0 0.0
2016-Feb-01 14:33N 29°48' W 093°21'0 0.0
2016-Feb-01 13:33N 29°48' W 093°21'0 0.0
2016-Feb-01 12:33N 29°48' W 093°21'0 0.0
2016-Feb-01 11:33N 29°48' W 093°21'0 0.0
2016-Feb-01 10:33N 29°48' W 093°21'0 0.0
2016-Feb-01 09:33N 29°48' W 093°21'0 0.0
2016-Feb-01 08:33N 29°48' W 093°21'0 0.0
2016-Feb-01 07:33N 29°48' W 093°21'0 0.0
2016-Feb-01 06:33N 29°48' W 093°21'0 0.0
2016-Feb-01 05:33N 29°48' W 093°21'0 0.0
2016-Feb-01 04:33N 29°48' W 093°21'0 0.0
2016-Feb-01 03:33N 29°48' W 093°21'0 0.0
2016-Feb-01 02:33N 29°48' W 093°21'0 0.0
2016-Feb-01 01:33N 29°48' W 093°21'0 0.0
2016-Feb-01 00:33N 29°48' W 093°21'0 0.0
2016-Jan-31 23:33N 29°48' W 093°21'0 0.0
2016-Jan-31 22:33N 29°48' W 093°21'0 0.0
2016-Jan-31 21:33N 29°48' W 093°21'0 0.0
2016-Jan-31 20:33N 29°48' W 093°21'0 0.0
2016-Jan-31 19:33N 29°48' W 093°21'0 0.0
2016-Jan-31 18:33N 29°48' W 093°21'0 0.0
2016-Jan-31 17:34N 29°48' W 093°21'0 0.0
2016-Jan-31 16:33N 29°48' W 093°21'0 0.0
2016-Jan-31 15:33N 29°48' W 093°21'0 0.0
2016-Jan-31 14:33N 29°48' W 093°21'0 0.0
2016-Jan-31 13:33N 29°48' W 093°21'0 0.0
2016-Jan-31 12:33N 29°48' W 093°21'0 0.0
2016-Jan-31 11:33N 29°48' W 093°21'0 0.0
2016-Jan-31 10:33N 29°48' W 093°21'0 0.0
2016-Jan-31 09:33N 29°48' W 093°21'0 0.0
2016-Jan-31 08:33N 29°48' W 093°21'0 0.0
2016-Jan-31 07:33N 29°48' W 093°21'0 0.0
2016-Jan-31 06:33N 29°48' W 093°21'0 0.0
2016-Jan-31 05:33N 29°48' W 093°21'0 0.0
2016-Jan-31 04:33N 29°48' W 093°21'0 0.0
2016-Jan-31 03:33N 29°48' W 093°21'0 0.0
2016-Jan-31 02:33N 29°48' W 093°21'0 0.0
2016-Jan-31 01:33N 29°48' W 093°21'0 0.0
2016-Jan-31 00:33N 29°48' W 093°21'0 0.0
2016-Jan-30 23:33N 29°48' W 093°21'0 0.0
2016-Jan-30 22:33N 29°48' W 093°21'0 0.0
2016-Jan-30 21:33N 29°48' W 093°21'0 0.0
2016-Jan-30 20:33N 29°48' W 093°21'0 0.0
2016-Jan-30 19:33N 29°48' W 093°21'0 0.0
2016-Jan-30 18:33N 29°48' W 093°21'0 0.0
2016-Jan-30 17:33N 29°48' W 093°21'0 0.0
2016-Jan-30 16:33N 29°48' W 093°21'0 0.0
2016-Jan-30 15:33N 29°48' W 093°21'0 0.0
2016-Jan-30 14:33N 29°48' W 093°21'0 0.0
2016-Jan-30 13:33N 29°48' W 093°21'0 0.0
2016-Jan-30 12:33N 29°48' W 093°21'0 0.0
2016-Jan-30 11:33N 29°48' W 093°21'0 0.0
2016-Jan-30 10:33N 29°48' W 093°21'0 0.0
2016-Jan-30 09:33N 29°48' W 093°21'0 0.0
2016-Jan-30 08:33N 29°48' W 093°21'0 0.0
2016-Jan-30 07:33N 29°48' W 093°21'0 0.0
2016-Jan-30 06:33N 29°48' W 093°21'0 0.0
2016-Jan-30 05:33N 29°48' W 093°21'0 0.0
2016-Jan-30 04:33N 29°48' W 093°21'0 0.0
2016-Jan-30 03:33N 29°48' W 093°21'0 0.0
2016-Jan-30 02:33N 29°48' W 093°21'0 0.0
2016-Jan-30 01:33N 29°48' W 093°21'3 2.7
2016-Jan-30 00:33N 29°45' W 093°21'5 5.4
2016-Jan-29 23:33N 29°42' W 093°15'6 6.1
2016-Jan-29 22:33N 29°40' W 093°09'6 6.1
2016-Jan-29 21:33N 29°38' W 093°03'6 6.0
2016-Jan-29 20:33N 29°36' W 092°56'6 5.5
2016-Jan-29 19:33N 29°35' W 092°50'7 5.2
2016-Jan-29 18:15N 29°33' W 092°42'13 5.0
2016-Jan-29 15:33N 29°28' W 092°28'9 2.6
2016-Jan-29 12:08N 29°33' W 092°18'0 0.0
2016-Jan-29 11:33N 29°33' W 092°18'0 0.0
2016-Jan-29 10:33N 29°33' W 092°18'0 0.0
2016-Jan-29 09:33N 29°33' W 092°18'0 0.0
2016-Jan-29 08:33N 29°33' W 092°18'0 0.0
2016-Jan-29 07:33N 29°33' W 092°18'0 0.0
2016-Jan-29 06:33N 29°33' W 092°18'0 0.0
2016-Jan-29 05:33N 29°33' W 092°18'0 0.0
2016-Jan-29 04:33N 29°33' W 092°18'  

Dump ship's entire track history